createdAt,value
2022-08-04T00:01:52.950Z,55.01
2022-08-04T00:04:28.330Z,54.94
2022-08-04T00:07:02.051Z,54.19
2022-08-04T00:09:58.645Z,54.47
2022-08-04T00:12:32.502Z,54.21
2022-08-04T00:15:05.416Z,54.61
2022-08-04T00:17:40.506Z,54.99
2022-08-04T00:20:10.499Z,54.21
2022-08-04T00:22:41.276Z,53.55
2022-08-04T00:25:10.981Z,54.62
2022-08-04T00:27:39.670Z,54.12
2022-08-04T00:30:08.932Z,53.58
2022-08-04T00:32:37.025Z,55.10
2022-08-04T00:35:06.129Z,55.50
2022-08-04T00:37:34.396Z,56.60
2022-08-04T00:40:02.696Z,56.10
2022-08-04T00:42:58.293Z,56.62
2022-08-04T00:46:15.060Z,56.15
2022-08-04T00:48:53.106Z,57.36
2022-08-04T00:51:27.525Z,57.73
2022-08-04T00:54:03.361Z,58.19
2022-08-04T00:56:52.051Z,58.45
2022-08-04T00:59:32.980Z,58.32
2022-08-04T01:02:02.661Z,58.17
2022-08-04T01:04:47.665Z,58.61
2022-08-04T01:07:33.231Z,58.02
2022-08-04T01:10:07.784Z,58.90
2022-08-04T01:12:49.734Z,58.98
2022-08-04T01:15:27.142Z,59.00
2022-08-04T01:18:23.060Z,58.53
2022-08-04T01:21:01.641Z,58.42
2022-08-04T01:23:42.949Z,58.26
2022-08-04T01:26:43.490Z,58.01
2022-08-04T01:29:14.953Z,58.91
2022-08-04T01:32:02.048Z,58.54
2022-08-04T01:34:32.635Z,58.32
2022-08-04T01:37:03.833Z,57.84
2022-08-04T01:39:43.535Z,57.99
2022-08-04T01:42:12.747Z,58.11
2022-08-04T01:45:02.011Z,58.67
2022-08-04T01:47:31.918Z,58.36
2022-08-04T01:50:07.855Z,58.67
2022-08-04T01:52:36.892Z,58.37
2022-08-04T01:55:06.977Z,59.18
2022-08-04T01:57:37.854Z,58.47
2022-08-04T02:00:10.595Z,59.01
2022-08-04T02:03:04.851Z,59.31
2022-08-04T02:06:03.096Z,59.42
2022-08-04T02:08:23.574Z,59.13
2022-08-04T02:11:04.571Z,59.16
2022-08-04T02:13:36.282Z,59.05
2022-08-04T02:16:08.871Z,58.56
2022-08-04T02:18:47.983Z,58.76
2022-08-04T02:21:18.038Z,59.27
2022-08-04T02:23:49.031Z,59.70
2022-08-04T02:26:22.241Z,59.20
2022-08-04T02:28:56.316Z,60.17
2022-08-04T02:31:30.046Z,60.29
2022-08-04T02:34:05.398Z,59.65
2022-08-04T02:36:38.422Z,59.02
2022-08-04T02:39:08.209Z,59.04
2022-08-04T02:41:36.837Z,59.57
2022-08-04T02:44:06.407Z,59.90
2022-08-04T02:46:37.794Z,59.71
2022-08-04T02:49:07.317Z,59.30
2022-08-04T02:51:37.017Z,60.53
2022-08-04T02:54:06.683Z,60.81
2022-08-04T02:56:37.491Z,61.20
2022-08-04T02:59:09.523Z,60.92
2022-08-04T03:01:58.015Z,61.19
2022-08-04T03:04:44.782Z,61.38
2022-08-04T03:07:30.753Z,61.33
2022-08-04T03:10:21.366Z,62.10
2022-08-04T03:13:24.485Z,62.00
2022-08-04T03:16:07.657Z,62.28
2022-08-04T03:22:03.072Z,61.30
2022-08-04T03:25:15.466Z,60.59
2022-08-04T03:28:13.438Z,60.54
2022-08-04T03:30:51.783Z,60.89
2022-08-04T03:33:40.966Z,62.13
2022-08-04T03:36:42.972Z,62.54
2022-08-04T03:39:41.918Z,62.96
2022-08-04T03:42:35.134Z,63.67
2022-08-04T03:45:24.018Z,63.57
2022-08-04T03:48:18.060Z,63.22
2022-08-04T03:51:36.115Z,63.79
2022-08-04T03:54:36.199Z,63.17
2022-08-04T03:57:25.306Z,63.25
2022-08-04T04:00:08.745Z,64.15
2022-08-04T04:03:28.357Z,63.73
2022-08-04T04:06:36.362Z,63.49
2022-08-04T04:09:58.149Z,64.04
2022-08-04T04:12:57.069Z,63.82
2022-08-04T04:15:39.119Z,63.34
2022-08-04T04:18:21.125Z,63.82
2022-08-04T04:21:00.216Z,64.81
2022-08-04T04:23:51.704Z,62.31
2022-08-04T04:26:38.751Z,63.09
2022-08-04T04:29:41.568Z,62.97
2022-08-04T04:32:23.050Z,63.41
2022-08-04T04:35:19.960Z,62.75
2022-08-04T04:37:58.730Z,63.73
2022-08-04T04:40:47.843Z,64.21
2022-08-04T04:43:51.579Z,63.50
2022-08-04T04:46:31.855Z,63.55
2022-08-04T04:49:04.579Z,63.50
2022-08-04T04:51:37.528Z,63.47
2022-08-04T04:54:09.657Z,64.46
2022-08-04T04:56:41.562Z,64.40
2022-08-04T04:59:12.791Z,64.79
2022-08-04T05:01:58.750Z,66.46
2022-08-04T05:04:39.314Z,66.02
2022-08-04T05:07:37.299Z,66.99
2022-08-04T05:10:11.924Z,66.54
2022-08-04T05:14:37.277Z,66.66
2022-08-04T05:15:45.420Z,66.60
2022-08-04T05:18:17.979Z,66.66
2022-08-04T05:20:49.164Z,66.76
2022-08-04T05:23:19.829Z,66.63
2022-08-04T05:25:58.674Z,66.75
2022-08-04T05:28:30.374Z,67.01
2022-08-04T05:31:01.864Z,66.77
2022-08-04T05:33:34.299Z,67.00
2022-08-04T05:36:19.036Z,66.52
2022-08-04T05:38:54.361Z,66.55
2022-08-04T05:41:23.596Z,66.26
2022-08-04T05:44:01.619Z,65.90
2022-08-04T05:46:31.998Z,65.81
2022-08-04T05:49:00.277Z,65.24
2022-08-04T05:51:30.933Z,65.18
2022-08-04T05:53:59.416Z,65.01
2022-08-04T05:56:27.882Z,64.96
2022-08-04T05:58:56.571Z,64.54
2022-08-04T06:01:25.701Z,63.77
2022-08-04T06:03:58.739Z,63.53
2022-08-04T06:06:27.955Z,63.70
2022-08-04T06:08:57.303Z,63.30
2022-08-04T06:11:28.003Z,63.71
2022-08-04T06:13:58.835Z,64.30
2022-08-04T06:16:32.142Z,63.73
2022-08-04T06:20:00.894Z,65.15
2022-08-04T06:21:55.733Z,64.41
2022-08-04T06:24:27.597Z,64.68
2022-08-04T06:26:56.403Z,64.28
2022-08-04T06:29:28.373Z,63.92
2022-08-04T06:32:29.771Z,64.81
2022-08-04T06:34:49.311Z,64.12
2022-08-04T06:37:41.029Z,63.84
2022-08-04T06:40:30.822Z,64.85
2022-08-04T06:42:55.102Z,63.92
2022-08-04T06:45:23.373Z,64.21
2022-08-04T06:47:51.609Z,64.25
2022-08-04T06:51:24.985Z,64.31
2022-08-04T06:53:09.385Z,64.31
2022-08-04T06:55:38.641Z,63.70
2022-08-04T06:58:07.775Z,64.05
2022-08-04T07:00:37.466Z,63.86
2022-08-04T07:03:05.782Z,63.57
2022-08-04T07:05:35.986Z,62.92
2022-08-04T07:08:05.771Z,63.01
2022-08-04T07:10:33.981Z,62.42
2022-08-04T07:13:02.487Z,62.41
2022-08-04T07:15:31.093Z,62.08
2022-08-04T07:18:01.330Z,62.48
2022-08-04T07:20:34.845Z,61.65
2022-08-04T07:23:05.756Z,62.51
2022-08-04T07:26:00.425Z,61.97
2022-08-04T07:28:24.812Z,61.78
2022-08-04T07:30:54.217Z,61.42
2022-08-04T07:33:22.982Z,61.65
2022-08-04T07:36:05.027Z,60.84
2022-08-04T07:38:46.515Z,59.90
2022-08-04T07:41:37.754Z,59.63
2022-08-04T07:44:06.754Z,59.13
2022-08-04T07:46:35.033Z,59.06
2022-08-04T07:49:03.086Z,58.69
2022-08-04T07:51:32.464Z,59.24
2022-08-04T07:54:03.448Z,57.83
2022-08-04T07:56:32.376Z,58.12
2022-08-04T07:59:01.132Z,58.12
2022-08-04T08:01:29.682Z,57.72
2022-08-04T08:03:59.274Z,57.44
2022-08-04T08:06:32.243Z,56.92
2022-08-04T08:09:13.554Z,55.54
2022-08-04T08:12:35.576Z,55.34
2022-08-04T08:14:31.994Z,56.05
2022-08-04T08:17:01.580Z,54.13
2022-08-04T08:19:29.881Z,54.40
2022-08-04T08:21:59.147Z,54.63
2022-08-04T08:24:30.259Z,54.58
2022-08-04T08:26:58.654Z,56.18
2022-08-04T08:29:27.698Z,55.22
2022-08-04T08:32:01.388Z,54.50
2022-08-04T08:34:32.455Z,54.49
2022-08-04T08:37:04.780Z,53.63
2022-08-04T08:39:37.717Z,53.98
2022-08-04T08:42:32.367Z,53.68
2022-08-04T08:45:32.823Z,53.77
2022-08-04T08:48:12.851Z,53.22
2022-08-04T08:51:11.445Z,54.74
2022-08-04T08:53:56.003Z,54.71
2022-08-04T08:56:34.829Z,53.32
2022-08-04T08:59:17.278Z,52.73
2022-08-04T09:02:04.667Z,52.28
2022-08-04T09:04:49.564Z,52.38
2022-08-04T09:07:50.977Z,52.11
2022-08-04T09:10:22.084Z,51.62
2022-08-04T09:12:55.301Z,51.59
2022-08-04T09:15:29.740Z,49.73
2022-08-04T09:18:02.041Z,51.42
2022-08-04T09:20:32.814Z,50.71
2022-08-04T09:23:08.107Z,50.70
2022-08-04T09:25:40.840Z,50.59
2022-08-04T09:28:43.611Z,50.17
2022-08-04T09:31:12.924Z,50.06
2022-08-04T09:33:46.222Z,50.85
2022-08-04T09:36:26.107Z,49.08
2022-08-04T09:39:05.312Z,48.64
2022-08-04T09:41:49.201Z,48.28
2022-08-04T09:44:49.972Z,49.16
2022-08-04T09:47:20.550Z,49.27
2022-08-04T09:49:52.475Z,47.12
2022-08-04T09:52:28.310Z,47.51
2022-08-04T09:55:05.935Z,46.66
2022-08-04T09:57:46.479Z,46.96
2022-08-04T10:00:17.165Z,47.27
2022-08-04T10:03:13.667Z,47.93
2022-08-04T10:05:55.059Z,47.08
2022-08-04T10:08:35.150Z,46.75
2022-08-04T10:11:08.748Z,44.50
2022-08-04T10:13:47.298Z,45.48
2022-08-04T10:16:39.449Z,46.07
2022-08-04T10:19:16.918Z,46.52
2022-08-04T10:21:59.896Z,45.00
2022-08-04T10:24:55.077Z,43.74
2022-08-04T10:27:27.178Z,44.35
2022-08-04T10:29:59.308Z,44.34
2022-08-04T10:32:32.804Z,44.85
2022-08-04T10:35:12.060Z,44.20
2022-08-04T10:38:01.016Z,43.96
2022-08-04T10:40:47.761Z,43.17
2022-08-04T10:43:25.315Z,43.36
2022-08-04T10:45:59.427Z,40.78
2022-08-04T10:48:37.553Z,38.81
2022-08-04T10:51:16.494Z,42.02
2022-08-04T10:53:45.042Z,41.84
2022-08-04T10:56:17.277Z,37.52
2022-08-04T10:58:49.081Z,38.36
2022-08-04T11:02:00.035Z,38.39
2022-08-04T11:04:16.058Z,38.43
2022-08-04T11:06:56.684Z,37.31
2022-08-04T11:09:24.980Z,34.69
2022-08-04T11:12:00.294Z,38.12
2022-08-04T11:14:34.761Z,37.29
2022-08-04T11:17:07.599Z,36.20
2022-08-04T11:19:45.392Z,37.23
2022-08-04T11:22:19.180Z,39.34
2022-08-04T11:24:52.889Z,38.06
2022-08-04T11:27:30.865Z,37.08
2022-08-04T11:30:03.809Z,35.12
2022-08-04T11:32:37.647Z,35.68
2022-08-04T11:35:11.232Z,36.68
2022-08-04T11:37:44.445Z,34.27
2022-08-04T11:40:15.127Z,33.54
2022-08-04T11:42:53.334Z,35.85
2022-08-04T11:45:26.347Z,34.02
2022-08-04T11:48:00.685Z,34.33
2022-08-04T11:50:34.673Z,35.54
2022-08-04T11:53:03.727Z,34.55
2022-08-04T11:56:07.510Z,34.86
2022-08-04T11:58:22.251Z,33.34
2022-08-04T12:00:58.294Z,31.96
2022-08-04T12:03:37.590Z,33.95
2022-08-04T12:06:19.512Z,33.83
2022-08-04T12:09:01.720Z,34.61
2022-08-04T12:11:47.976Z,33.75
2022-08-04T12:14:38.831Z,34.06
2022-08-04T12:17:08.616Z,33.51
2022-08-04T12:20:03.167Z,33.14
2022-08-04T12:22:33.905Z,31.82
2022-08-04T12:25:07.569Z,29.83
2022-08-04T12:27:38.692Z,32.29
2022-08-04T12:30:58.982Z,30.35
2022-08-04T12:33:01.469Z,30.62
2022-08-04T12:35:32.491Z,31.13
2022-08-04T12:38:06.343Z,31.67
2022-08-04T12:40:39.521Z,31.02
2022-08-04T12:43:14.526Z,28.72
2022-08-04T12:45:48.605Z,30.89
2022-08-04T12:48:21.076Z,30.95
2022-08-04T12:50:50.110Z,31.31
2022-08-04T12:53:31.420Z,29.16
2022-08-04T12:56:02.396Z,32.14
2022-08-04T12:58:43.330Z,32.73
2022-08-04T13:02:06.974Z,29.50
2022-08-04T13:04:05.081Z,31.54
2022-08-04T13:06:35.713Z,32.04
2022-08-04T13:09:09.600Z,29.79
2022-08-04T13:11:50.718Z,30.47
2022-08-04T13:14:27.059Z,31.05
2022-08-04T13:16:59.373Z,29.54
2022-08-04T13:19:28.855Z,30.31
2022-08-04T13:22:02.932Z,32.04
2022-08-04T13:24:56.311Z,27.62
2022-08-04T13:27:55.418Z,29.22
2022-08-04T13:30:26.713Z,29.39
2022-08-04T13:32:57.043Z,30.31
2022-08-04T13:35:54.404Z,31.51
2022-08-04T13:38:15.960Z,31.42
2022-08-04T13:40:45.977Z,27.22
2022-08-04T13:44:16.423Z,30.16
2022-08-04T13:46:28.075Z,29.23
2022-08-04T13:49:25.878Z,27.82
2022-08-04T13:51:57.467Z,29.25
2022-08-04T13:54:27.227Z,30.76
2022-08-04T13:57:01.832Z,29.31
2022-08-04T13:59:35.700Z,31.13
2022-08-04T14:02:08.929Z,29.21
2022-08-04T14:04:43.340Z,29.44
2022-08-04T14:07:18.085Z,33.09
2022-08-04T14:10:03.174Z,30.27
2022-08-04T14:12:38.466Z,28.19
2022-08-04T14:16:02.541Z,30.21
2022-08-04T14:18:28.850Z,26.41
2022-08-04T14:21:05.710Z,26.33
2022-08-04T14:23:47.036Z,27.63
2022-08-04T14:26:20.472Z,25.42
2022-08-04T14:29:27.760Z,26.04
2022-08-04T14:32:06.196Z,27.98
2022-08-04T14:34:41.548Z,28.75
2022-08-04T14:37:17.211Z,28.58
2022-08-04T14:40:19.401Z,28.16
2022-08-04T14:42:44.666Z,25.40
2022-08-04T14:45:34.150Z,27.05
2022-08-04T14:48:03.921Z,24.55
2022-08-04T14:50:41.103Z,25.85
2022-08-04T14:53:10.355Z,28.31
2022-08-04T14:55:40.230Z,23.01
2022-08-04T14:58:34.041Z,24.99
2022-08-04T15:01:01.085Z,23.63
2022-08-04T15:03:50.597Z,25.51
2022-08-04T15:06:23.025Z,26.12
2022-08-04T15:08:52.035Z,29.03
2022-08-04T15:11:23.530Z,23.50
2022-08-04T15:13:52.521Z,27.24
2022-08-04T15:16:22.897Z,25.66
2022-08-04T15:18:54.456Z,26.06
2022-08-04T15:21:23.858Z,25.59
2022-08-04T15:23:51.968Z,28.33
2022-08-04T15:26:26.469Z,26.78
2022-08-04T15:28:57.323Z,22.66
2022-08-04T15:32:07.570Z,24.88
2022-08-04T15:34:15.738Z,24.01
2022-08-04T15:36:57.203Z,26.73
2022-08-04T15:39:33.126Z,23.50
2022-08-04T15:42:16.185Z,25.16
2022-08-04T15:45:20.245Z,23.17
2022-08-04T15:48:29.019Z,25.08
2022-08-04T15:51:17.427Z,25.08
2022-08-04T15:54:27.312Z,24.68
2022-08-04T15:57:02.347Z,22.82
2022-08-04T16:00:09.922Z,23.42
2022-08-04T16:02:44.339Z,21.38
2022-08-04T16:05:39.483Z,24.48
2022-08-04T16:08:12.903Z,24.48
2022-08-04T16:10:42.284Z,25.83
2022-08-04T16:13:13.834Z,21.00
2022-08-04T16:15:44.204Z,21.51
2022-08-04T16:18:26.566Z,24.68
2022-08-04T16:20:58.533Z,23.11
2022-08-04T16:23:55.039Z,24.54
2022-08-04T16:26:46.155Z,22.23
2022-08-04T16:29:34.199Z,21.67
2022-08-04T16:32:22.470Z,21.63
2022-08-04T16:34:56.372Z,21.07
2022-08-04T16:37:31.716Z,23.40
2022-08-04T16:40:28.546Z,22.82
2022-08-04T16:43:07.126Z,23.24
2022-08-04T16:45:47.054Z,23.12
2022-08-04T16:48:15.670Z,21.97
2022-08-04T16:50:49.457Z,22.84
2022-08-04T16:53:52.374Z,22.58
2022-08-04T16:56:08.515Z,22.92
2022-08-04T16:58:37.173Z,23.55
2022-08-04T17:01:21.854Z,23.29
2022-08-04T17:04:05.109Z,23.64
2022-08-04T17:06:35.528Z,24.35
2022-08-04T17:09:07.479Z,23.75
2022-08-04T17:11:35.698Z,23.96
2022-08-04T17:14:05.903Z,24.13
2022-08-04T17:16:36.198Z,24.63
2022-08-04T17:19:06.239Z,25.13
2022-08-04T17:21:36.335Z,24.71
2022-08-04T17:24:12.639Z,24.53
2022-08-04T17:26:51.907Z,24.82
2022-08-04T17:29:44.163Z,25.14
2022-08-04T17:32:17.418Z,25.30
2022-08-04T17:34:49.044Z,25.32
2022-08-04T17:37:39.950Z,26.02
2022-08-04T17:40:22.885Z,26.06
2022-08-04T17:43:03.302Z,27.17
2022-08-04T17:46:15.771Z,26.82
2022-08-04T17:49:09.147Z,26.71
2022-08-04T17:52:06.977Z,26.54
2022-08-04T17:54:37.206Z,26.73
2022-08-04T17:57:19.869Z,26.87
2022-08-04T18:02:37.675Z,27.07
2022-08-04T18:05:11.638Z,27.75
2022-08-04T18:08:38.746Z,27.82
2022-08-04T18:10:51.790Z,27.77
2022-08-04T18:13:28.835Z,28.13
2022-08-04T18:16:03.881Z,28.83
2022-08-04T18:18:32.967Z,29.39
2022-08-04T18:21:02.777Z,29.42
2022-08-04T18:23:33.289Z,29.78
2022-08-04T18:26:03.791Z,30.20
2022-08-04T18:28:34.015Z,30.23
2022-08-04T18:31:02.736Z,29.25
2022-08-04T18:33:39.442Z,29.86
2022-08-04T18:36:32.665Z,30.86
2022-08-04T18:38:59.033Z,31.21
2022-08-04T18:41:28.221Z,31.06
2022-08-04T18:43:57.921Z,31.89
2022-08-04T18:46:28.612Z,31.86
2022-08-04T18:48:58.281Z,32.38
2022-08-04T18:51:31.059Z,32.72
2022-08-04T18:53:59.734Z,33.22
2022-08-04T18:56:29.518Z,33.45
2022-08-04T18:59:01.653Z,33.33
2022-08-04T19:02:12.817Z,33.79
2022-08-04T19:04:32.344Z,34.86
2022-08-04T19:07:24.523Z,34.91
2022-08-04T19:09:52.535Z,35.53
2022-08-04T19:12:27.373Z,35.63
2022-08-04T19:15:06.055Z,35.28
2022-08-04T19:17:52.468Z,36.61
2022-08-04T19:24:27.076Z,36.90
2022-08-04T19:26:04.752Z,37.71
2022-08-04T19:28:37.237Z,37.51
2022-08-04T19:31:08.415Z,37.95
2022-08-04T19:33:58.191Z,38.52
2022-08-04T19:36:28.687Z,38.19
2022-08-04T19:38:58.126Z,38.37
2022-08-04T19:41:27.135Z,38.77
2022-08-04T19:43:55.573Z,39.67
2022-08-04T19:46:28.433Z,40.36
2022-08-04T19:48:59.147Z,40.48
2022-08-04T19:51:28.109Z,39.76
2022-08-04T19:54:04.196Z,40.65
2022-08-04T20:19:13.824Z,40.41
2022-08-04T20:21:55.024Z,40.62
2022-08-04T20:24:38.799Z,40.32
2022-08-04T20:27:14.578Z,40.96
2022-08-04T20:29:48.278Z,41.76
2022-08-04T20:32:21.863Z,39.80
2022-08-04T20:34:52.061Z,40.22
2022-08-04T20:37:20.711Z,41.32
2022-08-04T20:39:54.625Z,41.61
2022-08-04T20:42:27.031Z,41.54
2022-08-04T20:44:56.380Z,41.85
2022-08-04T20:47:26.904Z,42.72
2022-08-04T20:50:04.688Z,43.02
2022-08-04T20:52:33.359Z,41.99
2022-08-04T20:55:03.326Z,41.97
2022-08-04T20:57:48.411Z,42.47
2022-08-04T21:00:29.895Z,42.70
2022-08-04T21:03:00.087Z,43.81
2022-08-04T21:05:28.498Z,44.38
2022-08-04T21:07:57.372Z,44.45
2022-08-04T21:10:26.240Z,44.10
2022-08-04T21:12:55.118Z,44.43
2022-08-04T21:15:25.508Z,44.55
2022-08-04T21:17:59.523Z,45.35
2022-08-04T21:20:36.135Z,45.46
2022-08-04T21:23:07.655Z,45.61
2022-08-04T21:25:42.710Z,45.33
2022-08-04T21:28:11.197Z,46.51
2022-08-04T21:30:54.245Z,46.78
2022-08-04T21:33:49.977Z,46.64
2022-08-04T21:36:16.105Z,47.37
2022-08-04T21:38:51.213Z,47.18
2022-08-04T21:41:24.888Z,47.65
2022-08-04T21:43:56.646Z,48.18
2022-08-04T21:46:27.510Z,48.15
2022-08-04T21:48:58.776Z,47.88
2022-08-04T21:52:00.189Z,48.37
2022-08-04T21:54:19.097Z,48.94
2022-08-04T21:56:50.875Z,48.75
2022-08-04T21:59:23.766Z,48.63
2022-08-04T22:02:00.096Z,48.55
2022-08-04T22:04:29.011Z,49.32
2022-08-04T22:06:58.452Z,49.22
2022-08-04T22:09:41.458Z,49.70
2022-08-04T22:12:12.074Z,49.70
2022-08-04T22:14:40.667Z,49.42
2022-08-04T22:17:13.712Z,49.80
2022-08-04T22:19:55.817Z,48.60
2022-08-04T22:22:29.533Z,49.60
2022-08-04T22:25:01.680Z,49.71
2022-08-04T22:27:55.147Z,49.72
2022-08-04T22:30:23.842Z,49.38
2022-08-04T22:32:52.467Z,49.75
2022-08-04T22:35:33.358Z,50.02
2022-08-04T22:38:21.333Z,50.46
2022-08-04T22:41:01.107Z,50.69
2022-08-04T22:43:33.206Z,50.11
2022-08-04T22:46:03.795Z,51.11
2022-08-04T22:48:32.667Z,50.93
2022-08-04T22:51:01.075Z,51.47
2022-08-04T22:53:32.677Z,51.60
2022-08-04T22:56:09.632Z,51.57
2022-08-04T22:58:40.801Z,51.34
2022-08-04T23:01:14.942Z,51.46
2022-08-04T23:03:55.261Z,51.46
2022-08-04T23:06:25.435Z,50.60
2022-08-04T23:08:55.336Z,51.02
2022-08-04T23:11:23.588Z,51.53
2022-08-04T23:13:51.757Z,51.98
2022-08-04T23:16:21.192Z,50.78
2022-08-04T23:18:52.785Z,51.36
2022-08-04T23:21:24.281Z,51.37
2022-08-04T23:24:00.607Z,51.82
2022-08-04T23:26:32.267Z,52.63
2022-08-04T23:29:03.969Z,53.32
2022-08-04T23:31:40.804Z,52.61
2022-08-04T23:34:12.050Z,52.62
2022-08-04T23:36:42.427Z,52.96
2022-08-04T23:39:10.749Z,53.32
2022-08-04T23:41:53.403Z,52.81
2022-08-04T23:44:24.966Z,54.42
2022-08-04T23:46:59.339Z,53.33
2022-08-04T23:49:44.351Z,53.71
2022-08-04T23:52:23.339Z,53.70
2022-08-04T23:54:58.760Z,54.39
2022-08-04T23:58:02.309Z,54.91
